Time;durP1;ratioP1;P1;durP2;ratioP2;P2;SDS_P1;SDS_P2;PMS_P1;PMS_P2;Temp;Humidity;BMP_temperature;BMP_pressure;BME280_temperature;BME280_humidity;BME280_pressure;Samples;Min_cycle;Max_cycle;Signal;HPM_P1;HPM_P2
2023/07/01 00:01:48;;;;;;;4.28;3.63;;;18.00;99.90;;;;;;5150384;28;20522;-68
2023/07/01 00:04:21;;;;;;;4.82;3.97;;;18.00;99.90;;;;;;5190513;28;20172;-71
2023/07/01 00:06:56;;;;;;;5.18;4.05;;;18.00;99.90;;;;;;5204678;28;20234;-71
2023/07/01 00:09:27;;;;;;;;;;;17.90;99.90;;;;;;5182916;28;20045;-69
2023/07/01 00:12:00;;;;;;;4.65;4.00;;;18.00;99.90;;;;;;5189669;28;19913;-68
2023/07/01 00:14:31;;;;;;;5.05;4.13;;;18.00;99.90;;;;;;5173564;28;20048;-69
2023/07/01 00:17:05;;;;;;;4.05;3.50;;;18.00;99.90;;;;;;5204157;28;20035;-69
2023/07/01 00:19:40;;;;;;;5.57;3.72;;;18.00;99.90;;;;;;5172525;28;20036;-68
2023/07/01 00:22:14;;;;;;;4.50;3.63;;;18.00;99.90;;;;;;5171214;28;20040;-70
2023/07/01 00:24:47;;;;;;;6.35;3.60;;;18.00;99.90;;;;;;5157925;28;20037;-69
2023/07/01 00:27:19;;;;;;;5.30;3.60;;;18.00;99.90;;;;;;5189052;28;20034;-70
2023/07/01 00:29:50;;;;;;;4.57;4.00;;;18.00;99.90;;;;;;5158464;28;20306;-70
2023/07/01 00:32:21;;;;;;;3.85;3.45;;;18.10;99.90;;;;;;5171708;28;20029;-68
2023/07/01 00:34:52;;;;;;;4.85;3.75;;;18.10;99.90;;;;;;5207160;28;20528;-69
2023/07/01 00:37:27;;;;;;;5.45;4.03;;;18.20;99.90;;;;;;5191942;28;20029;-67
2023/07/01 00:40:03;;;;;;;4.47;4.05;;;18.30;99.90;;;;;;5207662;28;20047;-72
2023/07/01 00:42:35;;;;;;;6.93;3.70;;;18.30;99.90;;;;;;5173769;28;20037;-69
2023/07/01 00:45:10;;;;;;;4.85;3.92;;;18.30;99.90;;;;;;5175130;28;20037;-69
2023/07/01 00:47:42;;;;;;;5.18;4.18;;;18.50;41.30;;;;;;5173648;28;20383;-71
2023/07/01 00:50:17;;;;;;;5.55;3.25;;;18.50;62.40;;;;;;5186487;28;20067;-70
2023/07/01 00:52:53;;;;;;;7.10;3.70;;;18.60;20.50;;;;;;5206027;28;20334;-72
2023/07/01 00:55:24;;;;;;;5.30;3.80;;;18.60;3.00;;;;;;5204986;28;20041;-70
2023/07/01 00:57:59;;;;;;;5.20;3.80;;;18.70;6.80;;;;;;5202906;28;20033;-68
2023/07/01 01:00:34;;;;;;;5.03;4.10;;;18.70;34.50;;;;;;5185331;28;20051;-71
2023/07/01 01:03:30;;;;;;;4.05;3.65;;;18.70;91.60;;;;;;5148888;23;20044;-85
2023/07/01 01:06:33;;;;;;;5.50;3.83;;;18.60;99.90;;;;;;5110346;29;20035;-86
2023/07/01 01:09:15;;;;;;;8.15;4.13;;;18.50;99.90;;;;;;5104680;29;20034;-87
2023/07/01 01:11:49;;;;;;;4.13;3.72;;;18.40;99.90;;;;;;5104644;29;20027;-87
2023/07/01 01:14:23;;;;;;;5.38;3.90;;;18.30;99.90;;;;;;5104659;29;20042;-86
2023/07/01 01:16:58;;;;;;;4.25;3.85;;;18.30;99.90;;;;;;5103519;29;20038;-87
2023/07/01 01:19:56;;;;;;;5.15;3.70;;;18.30;99.90;;;;;;5101331;29;20098;-86
2023/07/01 01:22:39;;;;;;;3.50;3.25;;;18.30;99.90;;;;;;5108666;28;20038;-85
2023/07/01 01:25:20;;;;;;;3.95;3.55;;;18.30;99.90;;;;;;5101776;29;20031;-87
2023/07/01 01:27:57;;;;;;;4.53;3.47;;;18.30;99.90;;;;;;5117334;29;20319;-87
2023/07/01 01:30:36;;;;;;;6.38;3.88;;;18.40;99.90;;;;;;5100625;29;20043;-86
2023/07/01 01:33:10;;;;;;;3.58;3.20;;;18.40;99.90;;;;;;5101062;29;20334;-86
2023/07/01 01:35:42;;;;;;;7.63;3.97;;;18.30;99.90;;;;;;5102798;29;20229;-87
2023/07/01 01:38:35;;;;;;;5.13;3.65;;;18.40;99.90;;;;;;5106102;29;20032;-87
2023/07/01 01:41:20;;;;;;;5.45;3.65;;;18.30;99.90;;;;;;5109767;28;20040;-86
2023/07/01 01:44:19;;;;;;;4.83;4.33;;;18.30;99.90;;;;;;5108527;29;20037;-87
2023/07/01 01:46:54;;;;;;;4.93;4.05;;;18.30;99.90;;;;;;5109628;29;20046;-87
2023/07/01 01:49:27;;;;;;;4.28;3.88;;;18.50;99.90;;;;;;5111679;28;20036;-86
2023/07/01 01:55:29;;;;;;;4.13;3.40;;;18.40;99.90;;;;;;5125674;29;20034;-85
2023/07/01 01:58:04;;;;;;;5.25;3.95;;;18.50;99.90;;;;;;5109687;29;20028;-86
2023/07/01 02:00:36;;;;;;;4.50;4.07;;;18.50;99.90;;;;;;5109119;29;20024;-85
2023/07/01 02:03:28;;;;;;;5.13;4.45;;;18.60;99.90;;;;;;5110599;29;20038;-86
2023/07/01 02:06:02;;;;;;;5.22;4.18;;;18.50;99.90;;;;;;5100275;28;20035;-87
2023/07/01 02:08:34;;;;;;;3.58;3.28;;;18.60;99.90;;;;;;5101000;29;20043;-85
2023/07/01 02:11:07;;;;;;;4.78;3.88;;;18.60;99.90;;;;;;5099566;29;20032;-85
2023/07/01 02:13:41;;;;;;;4.05;3.63;;;18.60;99.90;;;;;;5099525;28;20309;-86
2023/07/01 02:16:16;;;;;;;4.25;3.85;;;18.60;99.90;;;;;;5084053;29;20032;-87
2023/07/01 02:18:48;;;;;;;4.50;3.70;;;18.50;99.90;;;;;;5099996;28;20038;-86
2023/07/01 02:21:27;;;;;;;4.03;3.60;;;18.40;99.90;;;;;;5083228;29;20044;-86
2023/07/01 02:23:59;;;;;;;4.25;3.63;;;18.50;99.90;;;;;;5066715;29;20039;-87
2023/07/01 02:26:31;;;;;;;4.82;3.42;;;18.50;99.90;;;;;;5082844;29;20322;-87
2023/07/01 02:29:03;;;;;;;4.70;3.80;;;18.40;99.90;;;;;;5080702;28;20046;-86
2023/07/01 02:31:40;;;;;;;4.40;3.65;;;18.40;99.90;;;;;;5083665;28;20032;-87
2023/07/01 02:34:14;;;;;;;5.35;4.20;;;18.40;99.90;;;;;;5083014;29;20035;-87
2023/07/01 02:36:47;;;;;;;5.25;4.22;;;18.40;99.90;;;;;;5099511;29;20028;-86
2023/07/01 02:39:20;;;;;;;7.93;4.20;;;18.40;99.90;;;;;;5083539;28;20032;-87
2023/07/01 02:41:52;;;;;;;5.20;3.85;;;18.40;99.90;;;;;;5082574;29;20039;-87
2023/07/01 02:44:27;;;;;;;7.32;4.93;;;18.40;99.90;;;;;;5068819;29;20046;-87
2023/07/01 02:47:01;;;;;;;7.07;4.45;;;18.40;99.90;;;;;;5084328;28;20044;-87
2023/07/01 02:49:36;;;;;;;5.55;4.35;;;18.40;99.90;;;;;;5185080;28;20053;-87
2023/07/01 02:52:13;;;;;;;5.45;4.82;;;18.40;99.90;;;;;;5186893;28;20021;-87
2023/07/01 02:55:07;;;;;;;4.90;3.97;;;18.40;99.90;;;;;;5213581;28;20024;-86
2023/07/01 02:57:40;;;;;;;6.95;4.93;;;18.40;99.90;;;;;;5203620;28;20035;-86
2023/07/01 03:00:15;;;;;;;6.65;4.65;;;18.30;99.90;;;;;;5187047;28;20230;-86
2023/07/01 03:02:46;;;;;;;5.38;4.75;;;18.30;99.90;;;;;;5187969;28;20047;-86
2023/07/01 03:05:21;;;;;;;5.38;4.28;;;18.30;99.90;;;;;;5188568;28;20033;-87
2023/07/01 03:07:55;;;;;;;6.75;4.82;;;18.30;99.90;;;;;;5188532;28;20055;-87
2023/07/01 03:10:38;;;;;;;7.20;4.80;;;18.40;99.90;;;;;;5187710;28;20026;-87
2023/07/01 03:13:17;;;;;;;6.30;4.97;;;18.60;99.90;;;;;;5237625;28;20033;-86
2023/07/01 03:15:55;;;;;;;5.60;4.57;;;18.60;99.90;;;;;;5204406;28;20283;-86
2023/07/01 03:18:31;;;;;;;7.00;5.25;;;18.50;99.90;;;;;;5203885;28;20029;-85
2023/07/01 03:21:04;;;;;;;5.75;4.35;;;18.60;99.90;;;;;;5185988;28;20029;-86
2023/07/01 03:23:38;;;;;;;6.05;5.00;;;18.60;99.90;;;;;;5185843;28;20029;-86
2023/07/01 03:26:12;;;;;;;7.55;5.47;;;18.60;99.90;;;;;;5186065;28;20033;-85
2023/07/01 03:28:45;;;;;;;6.57;4.97;;;18.50;99.90;;;;;;5202031;28;20029;-87
2023/07/01 03:31:16;;;;;;;6.40;5.10;;;18.50;99.90;;;;;;5185839;28;20113;-86
2023/07/01 03:33:53;;;;;;;6.60;5.13;;;18.60;99.90;;;;;;5202212;28;20030;-88
2023/07/01 03:36:31;;;;;;;6.10;4.90;;;18.50;99.90;;;;;;5185818;28;20219;-87
2023/07/01 03:39:05;;;;;;;7.22;5.93;;;18.60;99.90;;;;;;5185843;28;20037;-85
2023/07/01 03:41:38;;;;;;;6.70;5.43;;;18.60;99.90;;;;;;5185289;28;20039;-85
2023/07/01 03:44:11;;;;;;;6.40;5.30;;;18.70;99.90;;;;;;5186889;28;20538;-86
2023/07/01 03:46:43;;;;;;;5.72;4.93;;;18.70;99.90;;;;;;5188297;28;20037;-86
2023/07/01 03:49:17;;;;;;;6.55;5.53;;;18.70;99.90;;;;;;5219673;28;20030;-86
2023/07/01 03:51:54;;;;;;;6.30;5.30;;;18.70;99.90;;;;;;5185690;28;20030;-85
2023/07/01 03:54:28;;;;;;;6.40;5.35;;;18.70;99.90;;;;;;5184668;28;20036;-85
2023/07/01 03:56:59;;;;;;;;;;;18.70;99.90;;;;;;5201762;28;20025;-85
2023/07/01 03:59:32;;;;;;;7.03;5.20;;;18.80;99.90;;;;;;5202609;28;19908;-85
2023/07/01 04:02:05;;;;;;;6.63;5.15;;;18.90;99.90;;;;;;5169863;28;20041;-85
2023/07/01 04:04:37;;;;;;;7.05;5.63;;;18.90;99.90;;;;;;5182237;28;20033;-85
2023/07/01 04:07:09;;;;;;;7.63;5.93;;;18.80;99.90;;;;;;5239682;28;20051;-87
2023/07/01 04:09:43;;;;;;;6.80;5.10;;;18.90;99.90;;;;;;5226787;28;20052;-87
2023/07/01 04:12:15;;;;;;;;;;;18.90;99.90;;;;;;5195075;28;20037;-86
2023/07/01 04:14:49;;;;;;;7.10;5.78;;;18.80;99.90;;;;;;5231532;28;19897;-86
2023/07/01 04:17:22;;;;;;;7.90;6.22;;;18.90;99.90;;;;;;5231525;28;20034;-87
2023/07/01 04:19:54;;;;;;;6.68;5.13;;;18.90;99.90;;;;;;5199238;28;20029;-86
2023/07/01 04:22:27;;;;;;;7.25;6.15;;;19.00;99.90;;;;;;5199212;28;20029;-86
2023/07/01 04:28:28;;;;;;;8.98;5.57;;;19.30;53.30;;;;;;5202279;28;20202;-85
2023/07/01 04:31:00;;;;;;;5.43;4.50;;;19.30;38.20;;;;;;5187606;28;20033;-87
2023/07/01 04:33:34;;;;;;;8.63;5.82;;;19.40;24.40;;;;;;5185877;28;20022;-86
2023/07/01 04:36:08;;;;;;;;;;;19.40;20.80;;;;;;5201098;28;20033;-85
2023/07/01 04:38:39;;;;;;;7.20;5.78;;;19.40;31.30;;;;;;5218976;28;19911;-85
2023/07/01 04:41:13;;;;;;;6.55;5.57;;;19.50;18.10;;;;;;5201504;28;20033;-86
2023/07/01 04:43:44;;;;;;;7.80;5.32;;;19.50;1.00;;;;;;5201594;28;20210;-85
2023/07/01 04:46:16;;;;;;;9.10;5.10;;;19.50;9.40;;;;;;5201170;28;20029;-86
2023/07/01 04:48:48;;;;;;;9.10;5.75;;;19.50;1.00;;;;;;5201241;28;20033;-85
2023/07/01 04:51:19;;;;;;;6.18;5.25;;;19.60;1.00;;;;;;5184554;28;20035;-86
2023/07/01 04:53:50;;;;;;;6.63;5.40;;;19.70;1.00;;;;;;5188890;28;20029;-85
2023/07/01 04:56:26;;;;;;;6.80;5.63;;;19.60;13.00;;;;;;5208059;28;20025;-87
2023/07/01 04:59:00;;;;;;;;;;;19.50;13.10;;;;;;5189478;28;20029;-86
2023/07/01 05:01:32;;;;;;;7.17;5.17;;;19.50;70.50;;;;;;5206432;28;19907;-85
2023/07/01 05:04:08;;;;;;;5.95;5.28;;;19.50;63.40;;;;;;5205427;28;20258;-88
2023/07/01 05:06:40;;;;;;;6.57;5.78;;;19.60;87.00;;;;;;5195603;28;20043;-85
2023/07/01 05:09:11;;;;;;;6.30;4.53;;;19.60;91.10;;;;;;5188292;28;20043;-86
2023/07/01 05:11:44;;;;;;;5.68;4.97;;;19.70;54.70;;;;;;5204326;28;20030;-86
2023/07/01 05:14:16;;;;;;;6.78;5.47;;;19.60;71.30;;;;;;5222052;28;20304;-86
2023/07/01 05:16:49;;;;;;;6.72;5.40;;;19.60;71.80;;;;;;5188530;28;20040;-85
2023/07/01 05:19:21;;;;;;;6.43;5.13;;;19.60;95.00;;;;;;5187870;28;20051;-86
2023/07/01 05:21:54;;;;;;;6.70;5.32;;;19.70;82.40;;;;;;5172718;28;20350;-86
2023/07/01 05:24:25;;;;;;;7.05;5.30;;;19.70;71.60;;;;;;5221199;28;20037;-87
2023/07/01 05:26:58;;;;;;;7.50;5.63;;;19.60;97.80;;;;;;5188477;28;20033;-85
2023/07/01 05:29:31;;;;;;;5.75;4.82;;;19.50;99.90;;;;;;5188707;28;20033;-86
2023/07/01 05:32:03;;;;;;;6.97;5.25;;;19.50;99.90;;;;;;5205241;28;20033;-86
2023/07/01 05:34:34;;;;;;;6.65;5.20;;;19.60;99.90;;;;;;5204968;28;20036;-85
2023/07/01 05:37:08;;;;;;;7.75;5.05;;;19.70;99.90;;;;;;5187835;28;20035;-86
2023/07/01 05:39:40;;;;;;;6.80;5.00;;;19.80;98.60;;;;;;5188384;28;20041;-86
2023/07/01 05:42:12;;;;;;;6.35;4.93;;;19.90;99.90;;;;;;5204226;28;20040;-85
2023/07/01 05:44:44;;;;;;;5.80;4.88;;;19.90;16.60;;;;;;5204495;28;20223;-86
2023/07/01 05:47:17;;;;;;;7.32;5.15;;;19.90;66.90;;;;;;5203871;28;20033;-87
2023/07/01 05:49:54;;;;;;;5.63;5.00;;;20.00;25.20;;;;;;5171977;28;20033;-86
2023/07/01 05:52:29;;;;;;;7.32;5.38;;;20.10;1.00;;;;;;5237108;28;20033;-85
2023/07/01 05:55:06;;;;;;;6.57;4.68;;;20.10;1.00;;;;;;5188608;28;20035;-87
2023/07/01 05:57:41;;;;;;;8.55;5.18;;;20.20;1.00;;;;;;5189665;28;20032;-87
2023/07/01 06:00:21;;;;;;;7.35;4.80;;;20.30;1.00;;;;;;5204225;28;20043;-87
2023/07/01 06:02:53;;;;;;;6.18;4.78;;;20.50;1.00;;;;;;5203826;28;20054;-86
2023/07/01 06:05:32;;;;;;;7.70;4.75;;;20.70;1.00;;;;;;5206928;28;20041;-86
2023/07/01 06:08:06;;;;;;;9.18;5.10;;;20.80;1.00;;;;;;5180475;28;20327;-85
2023/07/01 06:10:50;;;;;;;8.25;6.13;;;20.70;1.00;;;;;;5206559;28;20033;-86
2023/07/01 06:13:30;;;;;;;8.23;4.38;;;20.80;1.00;;;;;;5191324;28;20036;-86
2023/07/01 06:19:35;;;;;;;6.70;4.90;;;21.00;1.00;;;;;;5207351;28;20035;-88
2023/07/01 06:22:11;;;;;;;7.90;4.85;;;21.10;1.00;;;;;;5206839;28;20035;-86
2023/07/01 06:24:44;;;;;;;7.00;5.50;;;21.10;1.00;;;;;;5203738;28;20034;-86
2023/07/01 06:27:16;;;;;;;7.18;5.35;;;21.30;1.00;;;;;;5186826;28;20176;-86
2023/07/01 06:29:53;;;;;;;8.05;5.28;;;21.40;1.00;;;;;;5186941;28;20029;-85
2023/07/01 06:32:28;;;;;;;5.80;4.53;;;21.50;1.00;;;;;;5219443;28;20185;-87
2023/07/01 06:35:00;;;;;;;6.85;4.88;;;21.70;1.00;;;;;;5204673;28;20029;-85
2023/07/01 06:37:34;;;;;;;6.55;4.57;;;21.70;1.00;;;;;;5188612;28;20025;-86
2023/07/01 06:40:08;;;;;;;7.20;5.03;;;21.80;1.00;;;;;;5191622;28;20033;-86
2023/07/01 06:42:46;;;;;;;5.67;4.40;;;21.70;1.00;;;;;;5191972;28;20047;-86
2023/07/01 06:45:20;;;;;;;7.45;4.75;;;21.80;99.90;;;;;;5220785;28;20251;-85
2023/07/01 06:47:59;;;;;;;7.55;5.45;;;22.00;99.90;;;;;;5205332;28;20033;-86
2023/07/01 06:50:34;;;;;;;7.70;4.60;;;21.90;99.90;;;;;;5221838;28;20234;-85
2023/07/01 06:53:10;;;;;;;5.82;4.88;;;22.00;99.90;;;;;;5189529;28;20337;-87
2023/07/01 06:55:43;;;;;;;7.43;4.88;;;22.10;99.90;;;;;;5207284;28;20029;-88
2023/07/01 06:58:19;;;;;;;7.80;4.97;;;22.00;99.90;;;;;;5207507;28;20325;-86
2023/07/01 07:00:52;;;;;;;8.35;5.00;;;22.10;99.90;;;;;;5193290;28;20033;-86
2023/07/01 07:03:30;;;;;;;12.48;5.63;;;22.20;99.90;;;;;;5206203;28;20047;-86
2023/07/01 07:06:02;;;;;;;7.40;5.05;;;22.30;99.90;;;;;;5149968;28;20049;-87
2023/07/01 07:08:42;;;;;;;9.52;5.20;;;22.40;80.60;;;;;;5221315;28;20033;-85
2023/07/01 07:11:16;;;;;;;8.40;5.70;;;22.30;99.90;;;;;;5208480;28;20043;-86
2023/07/01 07:13:48;;;;;;;5.88;4.15;;;22.50;99.90;;;;;;5187625;28;20038;-86
2023/07/01 07:16:29;;;;;;;5.80;4.47;;;22.70;99.90;;;;;;5176951;22;20061;-71
2023/07/01 07:19:01;;;;;;;6.22;4.07;;;22.80;99.90;;;;;;5175333;28;20041;-71
2023/07/01 07:21:36;;;;;;;8.35;4.78;;;22.90;9.10;;;;;;5155039;28;20264;-69
2023/07/01 07:24:10;;;;;;;6.13;4.47;;;22.90;1.00;;;;;;5161732;28;20037;-69
2023/07/01 07:26:42;;;;;;;8.20;4.60;;;22.90;1.00;;;;;;5152012;28;20203;-69
2023/07/01 07:29:13;;;;;;;7.00;4.15;;;22.90;1.00;;;;;;5150344;28;20050;-69
2023/07/01 07:31:47;;;;;;;7.05;4.68;;;22.80;1.00;;;;;;5206397;28;20231;-69
2023/07/01 07:34:18;;;;;;;6.20;4.65;;;22.60;1.00;;;;;;5154152;28;20125;-69
2023/07/01 07:36:52;;;;;;;7.50;5.88;;;22.40;70.40;;;;;;5151283;28;20033;-70
2023/07/01 07:39:23;;;;;;;8.35;4.53;;;22.30;97.30;;;;;;5152069;28;20396;-69
2023/07/01 07:41:55;;;;;;;7.15;5.38;;;22.50;99.90;;;;;;5160182;28;20038;-69
2023/07/01 07:44:29;;;;;;;7.70;5.28;;;22.40;99.90;;;;;;5146609;28;20042;-69
2023/07/01 07:47:03;;;;;;;6.65;4.82;;;22.50;99.90;;;;;;5143990;28;20362;-68
2023/07/01 07:49:35;;;;;;;6.82;5.43;;;22.80;15.10;;;;;;5145278;28;20052;-70
2023/07/01 07:52:07;;;;;;;6.68;5.28;;;22.90;1.00;;;;;;5168799;28;20063;-71
2023/07/01 07:54:42;;;;;;;6.03;4.63;;;23.00;1.00;;;;;;5180646;28;20485;-71
2023/07/01 07:57:16;;;;;;;7.80;5.30;;;23.20;1.20;;;;;;5152208;28;20585;-71
2023/07/01 07:59:48;;;;;;;8.82;5.22;;;23.10;9.70;;;;;;5140779;28;20102;-69
2023/07/01 08:02:19;;;;;;;6.55;4.78;;;23.00;1.00;;;;;;5166565;28;20039;-69
2023/07/01 08:04:53;;;;;;;6.18;4.85;;;23.20;1.00;;;;;;5131376;28;20050;-71
2023/07/01 08:07:26;;;;;;;8.98;4.80;;;23.30;1.00;;;;;;5146572;28;20030;-72
2023/07/01 08:09:57;;;;;;;6.90;5.15;;;23.60;1.00;;;;;;5143118;28;20057;-72
2023/07/01 08:12:31;;;;;;;6.00;5.28;;;23.70;1.00;;;;;;5141097;28;20070;-73
2023/07/01 08:15:06;;;;;;;7.57;4.85;;;23.50;1.00;;;;;;5140258;28;20065;-69
2023/07/01 08:17:38;;;;;;;6.55;5.10;;;23.60;1.00;;;;;;5157478;28;20030;-71
2023/07/01 08:20:10;;;;;;;10.40;5.28;;;23.60;1.00;;;;;;5142563;28;20677;-71
2023/07/01 08:22:44;;;;;;;8.00;5.90;;;23.50;1.00;;;;;;5156173;28;20053;-70
2023/07/01 08:25:18;;;;;;;7.53;5.32;;;23.20;1.00;;;;;;5160171;28;20034;-70
2023/07/01 08:27:52;;;;;;;7.35;5.28;;;23.00;1.00;;;;;;5147668;28;20034;-71
2023/07/01 08:30:23;;;;;;;7.07;5.15;;;23.30;1.00;;;;;;5141768;28;20056;-71
2023/07/01 08:32:54;;;;;;;8.55;5.38;;;23.90;1.00;;;;;;5148958;28;20034;-73
2023/07/01 08:35:26;;;;;;;7.57;5.68;;;24.70;1.00;;;;;;5146014;28;20068;-70
2023/07/01 08:38:01;;;;;;;6.47;5.25;;;25.00;1.00;;;;;;5146160;28;20030;-69
2023/07/01 08:40:38;;;;;;;9.40;6.45;;;24.80;99.90;;;;;;5163473;28;20033;-69
2023/07/01 08:43:12;;;;;;;8.80;5.63;;;24.20;99.90;;;;;;5134169;28;20046;-70
2023/07/01 08:45:50;;;;;;;11.65;6.20;;;23.90;1.00;;;;;;5131676;28;20038;-71
2023/07/01 08:48:23;;;;;;;7.50;5.60;;;23.70;1.00;;;;;;5126915;28;20042;-70
2023/07/01 08:51:09;;;;;;;8.82;5.57;;;23.60;1.00;;;;;;5146680;28;20054;-70
2023/07/01 08:53:45;;;;;;;14.75;6.57;;;23.50;1.00;;;;;;5145463;28;20038;-70
2023/07/01 08:56:21;;;;;;;7.25;5.40;;;23.00;1.00;;;;;;5136008;28;20022;-70
2023/07/01 08:58:53;;;;;;;9.38;5.68;;;22.90;1.00;;;;;;5122575;28;20052;-71
2023/07/01 09:01:27;;;;;;;7.75;5.43;;;22.90;1.00;;;;;;5145711;28;20042;-70
2023/07/01 09:04:01;;;;;;;8.27;5.35;;;23.00;1.00;;;;;;5124953;28;20275;-70
2023/07/01 09:06:33;;;;;;;10.38;5.78;;;23.00;1.00;;;;;;5154191;28;20076;-70
2023/07/01 09:09:05;;;;;;;7.80;5.35;;;23.10;1.00;;;;;;5181365;28;20045;-70
2023/07/01 09:11:39;;;;;;;9.20;6.65;;;23.10;1.00;;;;;;5164959;28;20285;-70
2023/07/01 09:14:10;;;;;;;7.50;5.43;;;22.90;1.00;;;;;;5168280;28;20026;-71
2023/07/01 09:16:44;;;;;;;7.93;5.03;;;22.90;1.00;;;;;;5181612;28;20033;-71
2023/07/01 09:19:16;;;;;;;9.85;5.43;;;23.00;1.00;;;;;;5198345;28;20021;-72
2023/07/01 09:21:48;;;;;;;8.25;5.22;;;23.30;1.00;;;;;;5164277;28;20119;-69
2023/07/01 09:24:38;;;;;;;11.45;5.82;;;23.30;1.00;;;;;;5182529;28;20028;-70
2023/07/01 09:27:10;;;;;;;7.88;5.15;;;23.30;1.00;;;;;;5187280;28;20463;-71
2023/07/01 09:29:44;;;;;;;7.75;5.47;;;23.30;1.00;;;;;;5162581;28;20075;-70
2023/07/01 09:32:32;;;;;;;10.48;6.63;;;23.20;1.00;;;;;;5183693;28;20033;-71
2023/07/01 09:35:04;;;;;;;9.32;6.15;;;23.00;1.00;;;;;;5163284;28;20065;-72
2023/07/01 09:37:39;;;;;;;10.02;6.35;;;22.90;1.00;;;;;;5156978;28;20038;-71
2023/07/01 09:40:26;;;;;;;8.25;5.72;;;22.70;1.00;;;;;;5158327;28;20052;-74
2023/07/01 09:42:58;;;;;;;10.30;5.93;;;23.00;1.00;;;;;;5202742;28;20036;-72
2023/07/01 09:45:32;;;;;;;8.10;5.65;;;23.70;1.00;;;;;;5173920;28;20025;-70
2023/07/01 09:48:12;;;;;;;7.20;4.93;;;23.90;99.90;;;;;;5154144;28;20033;-72
2023/07/01 09:50:48;;;;;;;9.27;6.03;;;24.10;99.90;;;;;;5197805;28;20044;-72
2023/07/01 09:53:26;;;;;;;7.40;5.10;;;24.00;99.90;;;;;;5179799;28;20435;-71
2023/07/01 09:56:03;;;;;;;10.73;6.28;;;24.00;99.90;;;;;;5196135;28;20064;-73
2023/07/01 09:58:39;;;;;;;8.75;5.93;;;23.70;99.90;;;;;;5168468;28;20599;-73
2023/07/01 10:01:18;;;;;;;7.70;5.95;;;23.40;99.90;;;;;;5163410;28;20037;-71
2023/07/01 10:03:49;;;;;;;9.70;6.57;;;23.60;99.90;;;;;;5164048;28;20038;-70
2023/07/01 10:06:24;;;;;;;8.02;5.93;;;23.70;99.90;;;;;;5151991;28;20164;-71
2023/07/01 10:08:55;;;;;;;8.90;5.45;;;23.80;99.90;;;;;;5167473;28;20046;-72
2023/07/01 10:11:28;;;;;;;9.13;5.60;;;24.00;99.90;;;;;;5167784;28;20037;-70
2023/07/01 10:14:03;;;;;;;8.90;6.20;;;24.20;99.90;;;;;;5150704;28;20037;-70
2023/07/01 10:16:49;;;;;;;10.00;6.38;;;24.20;99.90;;;;;;5178257;28;20034;-71
2023/07/01 10:19:34;;;;;;;7.85;5.07;;;24.50;99.90;;;;;;5183725;28;20048;-71
2023/07/01 10:22:24;;;;;;;10.10;6.25;;;24.70;99.90;;;;;;5185615;28;20498;-72
2023/07/01 10:25:05;;;;;;;9.70;5.65;;;24.40;43.50;;;;;;5164540;28;20037;-70
2023/07/01 10:27:42;;;;;;;7.93;5.70;;;24.40;99.90;;;;;;5186970;28;20027;-71
2023/07/01 10:30:16;;;;;;;8.50;5.40;;;24.60;70.40;;;;;;5161210;28;20048;-70
2023/07/01 10:32:53;;;;;;;7.55;5.70;;;24.90;1.00;;;;;;5167596;28;20033;-71
2023/07/01 10:35:25;;;;;;;7.97;5.07;;;24.70;10.40;;;;;;5181705;28;20032;-71
2023/07/01 10:38:21;;;;;;;8.98;6.55;;;24.40;99.90;;;;;;5179420;28;20025;-71
2023/07/01 10:40:54;;;;;;;10.40;6.93;;;24.30;41.40;;;;;;5179878;28;20041;-71
2023/07/01 10:43:33;;;;;;;10.45;6.30;;;24.10;99.90;;;;;;5152739;28;20038;-70
2023/07/01 10:46:28;;;;;;;9.77;6.47;;;24.20;99.90;;;;;;5173475;28;20051;-71
2023/07/01 10:49:03;;;;;;;9.07;5.93;;;23.90;99.90;;;;;;5163382;28;20042;-70
2023/07/01 10:51:46;;;;;;;10.65;6.40;;;23.80;99.90;;;;;;5162029;28;20048;-71
2023/07/01 10:54:40;;;;;;;11.55;6.57;;;23.70;99.90;;;;;;5163006;28;20052;-70
2023/07/01 10:57:18;;;;;;;9.48;6.18;;;23.40;1.00;;;;;;5190847;28;20029;-71
2023/07/01 10:59:49;;;;;;;9.40;6.40;;;23.50;99.90;;;;;;5178845;28;20028;-70
2023/07/01 11:02:48;;;;;;;9.68;5.72;;;23.60;99.90;;;;;;5185886;28;20045;-70
2023/07/01 11:05:25;;;;;;;8.82;6.25;;;23.80;99.90;;;;;;5191938;28;20541;-70
2023/07/01 11:08:08;;;;;;;10.88;6.63;;;23.80;99.90;;;;;;5164925;28;20496;-70
2023/07/01 11:10:44;;;;;;;8.30;5.53;;;23.60;99.90;;;;;;5186214;28;20026;-70
2023/07/01 11:13:18;;;;;;;7.88;5.70;;;23.90;99.90;;;;;;5183921;28;20045;-70
2023/07/01 11:16:06;;;;;;;10.18;6.10;;;23.90;99.90;;;;;;5159431;28;20041;-70
2023/07/01 11:18:51;;;;;;;11.25;6.53;;;23.90;99.90;;;;;;5164929;28;20056;-71
2023/07/01 11:21:27;;;;;;;9.68;7.47;;;23.60;99.90;;;;;;5163011;28;20262;-72
2023/07/01 11:24:05;;;;;;;12.15;6.57;;;23.40;1.00;;;;;;5176727;28;20037;-72
2023/07/01 11:26:45;;;;;;;10.18;6.05;;;23.50;1.00;;;;;;5163118;28;20044;-71
2023/07/01 11:29:20;;;;;;;9.35;6.20;;;23.80;99.90;;;;;;5161193;28;20030;-73
2023/07/01 11:32:03;;;;;;;7.63;5.70;;;23.80;99.90;;;;;;5166465;28;20337;-72
2023/07/01 11:34:34;;;;;;;9.77;6.57;;;23.60;1.00;;;;;;5162034;28;20035;-71
2023/07/01 11:37:08;;;;;;;9.65;6.38;;;23.60;1.00;;;;;;5199165;28;20350;-72
2023/07/01 11:39:46;;;;;;;9.82;6.75;;;23.70;1.00;;;;;;5192866;28;20120;-73
2023/07/01 11:42:19;;;;;;;10.48;6.80;;;23.60;1.00;;;;;;5175062;28;20037;-70
2023/07/01 11:44:53;;;;;;;12.02;6.97;;;23.50;1.00;;;;;;5167013;28;20049;-73
2023/07/01 11:47:24;;;;;;;9.52;6.82;;;23.40;1.00;;;;;;5178181;28;20040;-71
2023/07/01 11:50:03;;;;;;;8.23;6.65;;;23.50;1.00;;;;;;5181810;28;20037;-72
2023/07/01 11:52:35;;;;;;;8.98;5.88;;;23.90;99.90;;;;;;5182157;28;20042;-72
2023/07/01 11:55:09;;;;;;;12.30;7.07;;;23.90;99.90;;;;;;5169424;28;20246;-71
2023/07/01 11:57:46;;;;;;;10.23;6.03;;;23.90;99.90;;;;;;5178325;28;20033;-72
2023/07/01 12:00:38;;;;;;;8.23;5.68;;;23.90;99.90;;;;;;5160478;28;20022;-70
2023/07/01 12:03:15;;;;;;;8.38;5.68;;;23.90;99.90;;;;;;5187678;28;20036;-71
2023/07/01 12:05:49;;;;;;;11.70;6.47;;;24.20;99.90;;;;;;5172344;28;20049;-71
2023/07/01 12:08:20;;;;;;;;;;;24.10;99.90;;;;;;5164788;28;20037;-72
2023/07/01 12:10:54;;;;;;;11.13;6.72;;;23.80;99.90;;;;;;5185992;28;19921;-72
2023/07/01 12:13:35;;;;;;;10.90;6.93;;;23.90;99.90;;;;;;5162092;28;20442;-71
2023/07/01 12:16:07;;;;;;;10.82;6.72;;;24.20;98.00;;;;;;5158859;28;20053;-70
2023/07/01 12:18:41;;;;;;;8.07;6.43;;;24.30;1.00;;;;;;5160232;28;20046;-69
2023/07/01 12:21:12;;;;;;;9.65;5.97;;;24.40;1.00;;;;;;5159569;28;20283;-70
2023/07/01 12:23:44;;;;;;;8.88;6.00;;;24.20;1.00;;;;;;5186717;28;20053;-71
2023/07/01 12:26:16;;;;;;;11.98;6.72;;;24.30;99.90;;;;;;5186308;28;20028;-69
2023/07/01 12:28:47;;;;;;;7.97;5.38;;;24.50;1.00;;;;;;5163110;28;21097;-72
2023/07/01 12:31:23;;;;;;;11.18;6.30;;;24.80;1.00;;;;;;5169586;28;20060;-70
2023/07/01 12:33:54;;;;;;;10.07;6.43;;;24.70;1.00;;;;;;5163905;28;20033;-71
2023/07/01 12:36:26;;;;;;;11.88;6.53;;;24.50;1.00;;;;;;5163444;28;20064;-71
2023/07/01 12:38:58;;;;;;;8.55;5.63;;;24.50;1.00;;;;;;5176855;28;20037;-72
2023/07/01 12:41:31;;;;;;;8.30;5.75;;;24.30;1.00;;;;;;5177774;28;20540;-71
2023/07/01 12:44:07;;;;;;;12.23;6.80;;;24.10;1.00;;;;;;5172463;28;20504;-71
2023/07/01 12:46:43;;;;;;;9.13;6.38;;;24.10;1.00;;;;;;5192648;28;20044;-71
2023/07/01 12:49:14;;;;;;;11.85;6.72;;;24.10;1.00;;;;;;5177179;28;20350;-71
2023/07/01 12:51:46;;;;;;;8.30;5.57;;;24.30;1.00;;;;;;5181938;28;20041;-71
2023/07/01 12:54:17;;;;;;;8.30;6.63;;;24.40;1.00;;;;;;5181397;28;20044;-71
2023/07/01 12:56:53;;;;;;;9.40;5.40;;;24.60;1.00;;;;;;5164242;28;20044;-71
2023/07/01 12:59:24;;;;;;;9.10;5.65;;;24.70;1.00;;;;;;5169901;28;20378;-71
2023/07/01 13:01:56;;;;;;;8.40;5.07;;;24.70;1.00;;;;;;5185382;28;20030;-72
2023/07/01 13:04:32;;;;;;;9.95;5.93;;;24.50;1.00;;;;;;5154125;28;20030;-71
2023/07/01 13:07:16;;;;;;;9.43;5.70;;;24.30;1.00;;;;;;5182500;28;20457;-71
2023/07/01 13:09:54;;;;;;;7.13;5.78;;;24.20;1.00;;;;;;5177826;28;20044;-72
2023/07/01 13:12:27;;;;;;;7.63;4.82;;;24.40;1.00;;;;;;5162527;28;20040;-72
2023/07/01 13:15:06;;;;;;;7.25;5.53;;;24.40;1.00;;;;;;5181018;28;20046;-71
2023/07/01 13:17:38;;;;;;;8.15;6.07;;;24.40;1.00;;;;;;5182869;28;20299;-71
2023/07/01 13:20:18;;;;;;;9.15;6.28;;;24.20;1.00;;;;;;5163758;28;20038;-74
2023/07/01 13:22:56;;;;;;;7.75;5.70;;;24.00;1.00;;;;;;5180311;28;20499;-72
2023/07/01 13:25:28;;;;;;;7.70;5.53;;;24.00;1.00;;;;;;5181383;28;20514;-70
2023/07/01 13:28:03;;;;;;;9.60;6.07;;;24.00;1.00;;;;;;5164431;28;20042;-71
2023/07/01 13:30:47;;;;;;;8.30;5.30;;;24.00;1.00;;;;;;5180178;28;20040;-71
2023/07/01 13:33:29;;;;;;;8.82;5.70;;;24.20;1.00;;;;;;5182706;28;20052;-72
2023/07/01 13:36:01;;;;;;;7.65;5.30;;;24.60;1.00;;;;;;5183444;28;20029;-72
2023/07/01 13:38:40;;;;;;;10.00;5.32;;;24.50;1.00;;;;;;5169110;28;20048;-71
2023/07/01 13:41:14;;;;;;;10.02;5.82;;;24.40;1.00;;;;;;5181898;28;20033;-72
2023/07/01 13:43:48;;;;;;;9.90;5.95;;;24.30;1.00;;;;;;5180360;28;20041;-73